sensor_id;sensor_type;location;lat;lon;timestamp;pressure;altitude;pressure_sealevel;temperature;humidity
9139;BME280;4604;48.616;9.548;2023-04-26T00:00:19;96906.97;;;6.80;100.00
9139;BME280;4604;48.616;9.548;2023-04-26T00:02:46;96916.25;;;6.73;100.00
9139;BME280;4604;48.616;9.548;2023-04-26T00:05:13;96909.53;;;6.69;100.00
9139;BME280;4604;48.616;9.548;2023-04-26T00:07:41;96908.91;;;6.65;100.00
9139;BME280;4604;48.616;9.548;2023-04-26T00:10:09;96904.75;;;6.63;100.00
9139;BME280;4604;48.616;9.548;2023-04-26T00:12:36;96916.19;;;6.62;100.00
9139;BME280;4604;48.616;9.548;2023-04-26T00:15:03;96913.56;;;6.62;100.00
9139;BME280;4604;48.616;9.548;2023-04-26T00:17:30;96920.31;;;6.53;100.00
9139;BME280;4604;48.616;9.548;2023-04-26T00:19:57;96914.00;;;6.45;100.00
9139;BME280;4604;48.616;9.548;2023-04-26T00:22:24;96916.84;;;6.41;100.00
9139;BME280;4604;48.616;9.548;2023-04-26T00:24:52;96921.56;;;6.36;100.00
9139;BME280;4604;48.616;9.548;2023-04-26T00:27:21;96917.03;;;6.27;100.00
9139;BME280;4604;48.616;9.548;2023-04-26T00:29:47;96915.00;;;6.31;100.00
9139;BME280;4604;48.616;9.548;2023-04-26T00:32:14;96915.16;;;6.29;100.00
9139;BME280;4604;48.616;9.548;2023-04-26T00:34:41;96909.50;;;6.22;100.00
9139;BME280;4604;48.616;9.548;2023-04-26T00:37:07;96910.06;;;6.15;100.00
9139;BME280;4604;48.616;9.548;2023-04-26T00:39:34;96912.53;;;6.05;100.00
9139;BME280;4604;48.616;9.548;2023-04-26T00:42:02;96918.94;;;6.01;100.00
9139;BME280;4604;48.616;9.548;2023-04-26T00:44:29;96914.13;;;5.95;100.00
9139;BME280;4604;48.616;9.548;2023-04-26T00:46:55;96920.31;;;5.94;100.00
9139;BME280;4604;48.616;9.548;2023-04-26T00:49:23;96919.16;;;5.85;100.00
9139;BME280;4604;48.616;9.548;2023-04-26T00:51:51;96918.66;;;5.80;100.00
9139;BME280;4604;48.616;9.548;2023-04-26T00:54:19;96929.03;;;5.82;100.00
9139;BME280;4604;48.616;9.548;2023-04-26T00:56:46;96924.34;;;5.74;100.00
9139;BME280;4604;48.616;9.548;2023-04-26T00:59:14;96919.19;;;5.72;100.00
9139;BME280;4604;48.616;9.548;2023-04-26T01:01:40;96916.81;;;5.69;100.00
9139;BME280;4604;48.616;9.548;2023-04-26T01:04:07;96920.06;;;5.60;100.00
9139;BME280;4604;48.616;9.548;2023-04-26T01:06:34;96927.41;;;5.55;100.00
9139;BME280;4604;48.616;9.548;2023-04-26T01:09:03;96929.84;;;5.45;100.00
9139;BME280;4604;48.616;9.548;2023-04-26T01:11:33;96932.16;;;5.37;100.00
9139;BME280;4604;48.616;9.548;2023-04-26T01:14:01;96924.72;;;5.31;100.00
9139;BME280;4604;48.616;9.548;2023-04-26T01:16:31;96932.34;;;5.34;100.00
9139;BME280;4604;48.616;9.548;2023-04-26T01:19:06;96928.72;;;5.36;100.00
9139;BME280;4604;48.616;9.548;2023-04-26T01:21:33;96930.09;;;5.29;100.00
9139;BME280;4604;48.616;9.548;2023-04-26T01:24:02;96932.19;;;5.24;100.00
9139;BME280;4604;48.616;9.548;2023-04-26T01:26:29;96936.16;;;5.17;100.00
9139;BME280;4604;48.616;9.548;2023-04-26T01:28:56;96939.19;;;5.11;100.00
9139;BME280;4604;48.616;9.548;2023-04-26T01:31:22;96921.63;;;5.00;100.00
9139;BME280;4604;48.616;9.548;2023-04-26T01:33:49;96932.78;;;5.02;100.00
9139;BME280;4604;48.616;9.548;2023-04-26T01:36:16;96936.28;;;5.03;100.00
9139;BME280;4604;48.616;9.548;2023-04-26T01:38:42;96923.94;;;5.05;100.00
9139;BME280;4604;48.616;9.548;2023-04-26T01:41:10;96929.03;;;5.06;100.00
9139;BME280;4604;48.616;9.548;2023-04-26T01:43:37;96925.59;;;5.06;100.00
9139;BME280;4604;48.616;9.548;2023-04-26T01:46:04;96925.38;;;4.96;100.00
9139;BME280;4604;48.616;9.548;2023-04-26T01:48:30;96931.03;;;4.90;100.00
9139;BME280;4604;48.616;9.548;2023-04-26T01:50:57;96930.41;;;4.86;100.00
9139;BME280;4604;48.616;9.548;2023-04-26T01:53:24;96939.06;;;4.87;100.00
9139;BME280;4604;48.616;9.548;2023-04-26T01:55:51;96936.78;;;4.82;100.00
9139;BME280;4604;48.616;9.548;2023-04-26T01:58:20;96917.28;;;4.61;100.00
9139;BME280;4604;48.616;9.548;2023-04-26T02:00:47;96924.84;;;4.65;100.00
9139;BME280;4604;48.616;9.548;2023-04-26T02:03:14;96924.84;;;4.65;100.00
9139;BME280;4604;48.616;9.548;2023-04-26T02:05:40;96928.69;;;4.60;100.00
9139;BME280;4604;48.616;9.548;2023-04-26T02:08:07;96927.63;;;4.49;100.00
9139;BME280;4604;48.616;9.548;2023-04-26T02:10:33;96937.25;;;4.49;100.00
9139;BME280;4604;48.616;9.548;2023-04-26T02:13:00;96932.97;;;4.48;100.00
9139;BME280;4604;48.616;9.548;2023-04-26T02:15:28;96937.88;;;4.40;100.00
9139;BME280;4604;48.616;9.548;2023-04-26T02:17:55;96935.34;;;4.38;100.00
9139;BME280;4604;48.616;9.548;2023-04-26T02:20:22;96929.88;;;4.28;100.00
9139;BME280;4604;48.616;9.548;2023-04-26T02:22:48;96936.78;;;4.29;100.00
9139;BME280;4604;48.616;9.548;2023-04-26T02:25:15;96934.19;;;4.29;100.00
9139;BME280;4604;48.616;9.548;2023-04-26T02:27:41;96933.66;;;4.24;100.00
9139;BME280;4604;48.616;9.548;2023-04-26T02:30:09;96932.47;;;4.16;100.00
9139;BME280;4604;48.616;9.548;2023-04-26T02:32:37;96936.59;;;4.05;100.00
9139;BME280;4604;48.616;9.548;2023-04-26T02:35:04;96929.97;;;4.00;100.00
9139;BME280;4604;48.616;9.548;2023-04-26T02:37:31;96934.50;;;3.98;100.00
9139;BME280;4604;48.616;9.548;2023-04-26T02:39:58;96937.28;;;3.95;100.00
9139;BME280;4604;48.616;9.548;2023-04-26T02:42:24;96939.25;;;3.91;100.00
9139;BME280;4604;48.616;9.548;2023-04-26T02:44:51;96930.69;;;3.89;100.00
9139;BME280;4604;48.616;9.548;2023-04-26T02:47:17;96931.44;;;3.91;100.00
9139;BME280;4604;48.616;9.548;2023-04-26T02:49:45;96923.88;;;3.86;100.00
9139;BME280;4604;48.616;9.548;2023-04-26T02:52:12;96920.72;;;3.81;100.00
9139;BME280;4604;48.616;9.548;2023-04-26T02:54:39;96916.00;;;3.74;100.00
9139;BME280;4604;48.616;9.548;2023-04-26T02:57:06;96915.19;;;3.73;100.00
9139;BME280;4604;48.616;9.548;2023-04-26T02:59:35;96907.63;;;3.69;100.00
9139;BME280;4604;48.616;9.548;2023-04-26T03:02:02;96908.53;;;3.68;100.00
9139;BME280;4604;48.616;9.548;2023-04-26T03:04:32;96908.13;;;3.61;100.00
9139;BME280;4604;48.616;9.548;2023-04-26T03:07:01;96910.00;;;3.59;100.00
9139;BME280;4604;48.616;9.548;2023-04-26T03:09:28;96913.16;;;3.50;100.00
9139;BME280;4604;48.616;9.548;2023-04-26T03:11:55;96907.19;;;3.48;100.00
9139;BME280;4604;48.616;9.548;2023-04-26T03:14:22;96911.59;;;3.47;100.00
9139;BME280;4604;48.616;9.548;2023-04-26T03:16:51;96913.25;;;3.48;100.00
9139;BME280;4604;48.616;9.548;2023-04-26T03:19:19;96917.16;;;3.55;100.00
9139;BME280;4604;48.616;9.548;2023-04-26T03:21:45;96929.84;;;3.47;100.00
9139;BME280;4604;48.616;9.548;2023-04-26T03:24:14;96933.38;;;3.46;100.00
9139;BME280;4604;48.616;9.548;2023-04-26T03:26:40;96933.94;;;3.51;100.00
9139;BME280;4604;48.616;9.548;2023-04-26T03:29:07;96936.44;;;3.53;100.00
9139;BME280;4604;48.616;9.548;2023-04-26T03:31:33;96935.53;;;3.54;100.00
9139;BME280;4604;48.616;9.548;2023-04-26T03:34:00;96937.09;;;3.56;100.00
9139;BME280;4604;48.616;9.548;2023-04-26T03:36:27;96935.22;;;3.58;100.00
9139;BME280;4604;48.616;9.548;2023-04-26T03:38:54;96938.56;;;3.60;100.00
9139;BME280;4604;48.616;9.548;2023-04-26T03:41:23;96940.16;;;3.63;100.00
9139;BME280;4604;48.616;9.548;2023-04-26T03:43:50;96938.56;;;3.60;100.00
9139;BME280;4604;48.616;9.548;2023-04-26T03:46:17;96933.75;;;3.54;100.00
9139;BME280;4604;48.616;9.548;2023-04-26T03:48:43;96937.19;;;3.55;100.00
9139;BME280;4604;48.616;9.548;2023-04-26T03:51:10;96928.00;;;3.49;100.00
9139;BME280;4604;48.616;9.548;2023-04-26T03:53:37;96940.84;;;3.52;100.00
9139;BME280;4604;48.616;9.548;2023-04-26T03:56:03;96929.00;;;3.47;100.00
9139;BME280;4604;48.616;9.548;2023-04-26T03:58:34;96925.84;;;3.41;100.00
9139;BME280;4604;48.616;9.548;2023-04-26T04:01:01;96923.25;;;3.41;100.00
9139;BME280;4604;48.616;9.548;2023-04-26T04:03:28;96916.41;;;3.39;100.00
9139;BME280;4604;48.616;9.548;2023-04-26T04:05:55;96925.00;;;3.41;100.00
9139;BME280;4604;48.616;9.548;2023-04-26T04:08:21;96928.75;;;3.37;100.00
9139;BME280;4604;48.616;9.548;2023-04-26T04:10:49;96928.38;;;3.29;100.00
9139;BME280;4604;48.616;9.548;2023-04-26T04:13:16;96930.13;;;3.28;100.00
9139;BME280;4604;48.616;9.548;2023-04-26T04:15:44;96938.03;;;3.27;100.00
9139;BME280;4604;48.616;9.548;2023-04-26T04:18:11;96933.78;;;3.26;100.00
9139;BME280;4604;48.616;9.548;2023-04-26T04:20:38;96928.47;;;3.27;100.00
9139;BME280;4604;48.616;9.548;2023-04-26T04:23:06;96929.22;;;3.29;100.00
9139;BME280;4604;48.616;9.548;2023-04-26T04:25:32;96930.22;;;3.27;100.00
9139;BME280;4604;48.616;9.548;2023-04-26T04:27:59;96937.22;;;3.26;100.00
9139;BME280;4604;48.616;9.548;2023-04-26T04:30:27;96933.78;;;3.26;100.00
9139;BME280;4604;48.616;9.548;2023-04-26T04:32:55;96931.44;;;3.21;100.00
9139;BME280;4604;48.616;9.548;2023-04-26T04:35:23;96932.28;;;3.21;100.00
9139;BME280;4604;48.616;9.548;2023-04-26T04:37:53;96929.78;;;3.20;100.00
9139;BME280;4604;48.616;9.548;2023-04-26T04:40:21;96940.75;;;3.25;100.00
9139;BME280;4604;48.616;9.548;2023-04-26T04:42:48;96946.63;;;3.29;100.00
9139;BME280;4604;48.616;9.548;2023-04-26T04:45:15;96949.97;;;3.31;100.00
9139;BME280;4604;48.616;9.548;2023-04-26T04:47:42;96929.22;;;3.29;100.00
9139;BME280;4604;48.616;9.548;2023-04-26T04:50:11;96950.25;;;3.40;100.00
9139;BME280;4604;48.616;9.548;2023-04-26T04:52:37;96951.94;;;3.41;100.00
9139;BME280;4604;48.616;9.548;2023-04-26T04:55:04;96947.63;;;3.40;100.00
9139;BME280;4604;48.616;9.548;2023-04-26T04:57:31;96952.78;;;3.42;100.00
9139;BME280;4604;48.616;9.548;2023-04-26T04:59:58;96941.19;;;3.46;100.00
9139;BME280;4604;48.616;9.548;2023-04-26T05:02:31;96952.84;;;3.55;100.00
9139;BME280;4604;48.616;9.548;2023-04-26T05:04:58;96949.88;;;3.61;100.00
9139;BME280;4604;48.616;9.548;2023-04-26T05:07:27;96927.50;;;3.57;100.00
9139;BME280;4604;48.616;9.548;2023-04-26T05:09:53;96962.03;;;3.75;100.00
9139;BME280;4604;48.616;9.548;2023-04-26T05:12:20;96950.41;;;3.80;100.00
9139;BME280;4604;48.616;9.548;2023-04-26T05:14:47;96962.97;;;3.88;100.00
9139;BME280;4604;48.616;9.548;2023-04-26T05:17:13;96957.63;;;3.90;100.00
9139;BME280;4604;48.616;9.548;2023-04-26T05:19:40;96973.38;;;4.02;100.00
9139;BME280;4604;48.616;9.548;2023-04-26T05:22:06;96953.47;;;4.00;100.00
9139;BME280;4604;48.616;9.548;2023-04-26T05:24:35;96971.25;;;4.22;100.00
9139;BME280;4604;48.616;9.548;2023-04-26T05:27:01;96981.91;;;4.32;100.00
9139;BME280;4604;48.616;9.548;2023-04-26T05:29:29;96977.88;;;4.40;100.00
9139;BME280;4604;48.616;9.548;2023-04-26T05:31:56;96982.97;;;4.56;100.00
9139;BME280;4604;48.616;9.548;2023-04-26T05:34:23;96979.94;;;4.62;100.00
9139;BME280;4604;48.616;9.548;2023-04-26T05:36:49;96975.97;;;4.69;100.00
9139;BME280;4604;48.616;9.548;2023-04-26T05:39:16;96989.06;;;4.82;100.00
9139;BME280;4604;48.616;9.548;2023-04-26T05:41:46;96981.97;;;4.97;100.00
9139;BME280;4604;48.616;9.548;2023-04-26T05:44:13;96983.44;;;5.14;100.00
9139;BME280;4604;48.616;9.548;2023-04-26T05:46:40;96983.34;;;5.28;100.00
9139;BME280;4604;48.616;9.548;2023-04-26T05:49:06;96989.31;;;5.43;100.00
9139;BME280;4604;48.616;9.548;2023-04-26T05:51:36;96979.34;;;5.48;100.00
9139;BME280;4604;48.616;9.548;2023-04-26T05:54:03;96982.38;;;5.55;100.00
9139;BME280;4604;48.616;9.548;2023-04-26T05:56:29;96984.38;;;5.64;100.00
9139;BME280;4604;48.616;9.548;2023-04-26T05:58:58;96987.28;;;5.72;100.00
9139;BME280;4604;48.616;9.548;2023-04-26T06:01:24;96984.34;;;5.77;100.00
9139;BME280;4604;48.616;9.548;2023-04-26T06:03:57;96993.22;;;5.87;100.00
9139;BME280;4604;48.616;9.548;2023-04-26T06:06:25;96983.91;;;5.96;100.00
9139;BME280;4604;48.616;9.548;2023-04-26T06:08:54;96984.81;;;6.08;100.00
9139;BME280;4604;48.616;9.548;2023-04-26T06:11:21;96990.25;;;6.17;100.00
9139;BME280;4604;48.616;9.548;2023-04-26T06:13:47;96989.34;;;6.30;100.00
9139;BME280;4604;48.616;9.548;2023-04-26T06:16:15;96991.19;;;6.40;100.00
9139;BME280;4604;48.616;9.548;2023-04-26T06:18:42;96996.00;;;6.47;100.00
9139;BME280;4604;48.616;9.548;2023-04-26T06:21:09;96992.09;;;6.52;100.00
9139;BME280;4604;48.616;9.548;2023-04-26T06:23:35;96995.09;;;6.59;100.00
9139;BME280;4604;48.616;9.548;2023-04-26T06:26:02;96989.06;;;6.70;100.00
9139;BME280;4604;48.616;9.548;2023-04-26T06:28:29;96991.22;;;6.76;100.00
9139;BME280;4604;48.616;9.548;2023-04-26T06:30:55;97002.56;;;6.88;100.00
9139;BME280;4604;48.616;9.548;2023-04-26T06:33:23;97000.63;;;7.02;100.00
9139;BME280;4604;48.616;9.548;2023-04-26T06:35:50;97000.38;;;7.05;100.00
9139;BME280;4604;48.616;9.548;2023-04-26T06:38:17;97000.53;;;7.15;100.00
9139;BME280;4604;48.616;9.548;2023-04-26T06:40:43;97009.59;;;7.34;100.00
9139;BME280;4604;48.616;9.548;2023-04-26T06:43:10;96993.16;;;7.32;100.00
9139;BME280;4604;48.616;9.548;2023-04-26T06:45:37;97011.19;;;7.47;100.00
9139;BME280;4604;48.616;9.548;2023-04-26T06:48:04;97012.72;;;7.39;100.00
9139;BME280;4604;48.616;9.548;2023-04-26T06:50:32;97017.75;;;7.42;98.87
9139;BME280;4604;48.616;9.548;2023-04-26T06:52:59;97013.56;;;7.39;95.98
9139;BME280;4604;48.616;9.548;2023-04-26T06:55:25;97020.72;;;7.37;93.48
9139;BME280;4604;48.616;9.548;2023-04-26T06:57:52;97014.66;;;7.37;95.53
9139;BME280;4604;48.616;9.548;2023-04-26T07:00:20;97020.72;;;7.48;95.68
9139;BME280;4604;48.616;9.548;2023-04-26T07:02:47;97018.94;;;7.60;96.50
9139;BME280;4604;48.616;9.548;2023-04-26T07:05:13;97018.38;;;7.90;95.73
9139;BME280;4604;48.616;9.548;2023-04-26T07:07:41;97010.09;;;8.06;94.05
9139;BME280;4604;48.616;9.548;2023-04-26T07:10:08;97012.13;;;8.14;92.67
9139;BME280;4604;48.616;9.548;2023-04-26T07:12:35;97007.72;;;8.14;94.37
9139;BME280;4604;48.616;9.548;2023-04-26T07:15:02;97014.28;;;8.20;94.04
9139;BME280;4604;48.616;9.548;2023-04-26T07:17:30;97003.50;;;8.23;93.54
9139;BME280;4604;48.616;9.548;2023-04-26T07:19:57;97004.59;;;8.21;89.83
9139;BME280;4604;48.616;9.548;2023-04-26T07:22:25;97006.06;;;8.02;90.66
9139;BME280;4604;48.616;9.548;2023-04-26T07:24:53;97009.16;;;8.07;90.41
9139;BME280;4604;48.616;9.548;2023-04-26T07:27:20;97008.81;;;7.89;89.64
9139;BME280;4604;48.616;9.548;2023-04-26T07:29:47;97006.31;;;7.77;91.22
9139;BME280;4604;48.616;9.548;2023-04-26T07:32:13;97007.13;;;7.77;93.08
9139;BME280;4604;48.616;9.548;2023-04-26T07:34:40;96998.31;;;7.78;95.18
9139;BME280;4604;48.616;9.548;2023-04-26T07:37:07;97000.22;;;7.76;94.55
9139;BME280;4604;48.616;9.548;2023-04-26T07:39:33;96998.28;;;8.01;93.71
9139;BME280;4604;48.616;9.548;2023-04-26T07:42:02;96994.53;;;8.26;91.84
9139;BME280;4604;48.616;9.548;2023-04-26T07:44:28;97000.00;;;8.56;88.78
9139;BME280;4604;48.616;9.548;2023-04-26T07:46:55;96982.59;;;8.65;85.90
9139;BME280;4604;48.616;9.548;2023-04-26T07:49:22;96991.38;;;8.87;83.80
9139;BME280;4604;48.616;9.548;2023-04-26T07:51:48;96986.78;;;9.00;83.44
9139;BME280;4604;48.616;9.548;2023-04-26T07:54:16;96992.06;;;9.31;80.13
9139;BME280;4604;48.616;9.548;2023-04-26T07:56:43;96998.38;;;9.18;81.79
9139;BME280;4604;48.616;9.548;2023-04-26T07:59:11;97001.31;;;9.04;80.63
9139;BME280;4604;48.616;9.548;2023-04-26T08:01:37;96993.94;;;8.98;78.04
9139;BME280;4604;48.616;9.548;2023-04-26T08:04:04;96997.00;;;9.24;75.92
9139;BME280;4604;48.616;9.548;2023-04-26T08:06:31;96998.06;;;9.33;74.30
9139;BME280;4604;48.616;9.548;2023-04-26T08:08:58;96993.44;;;9.56;71.96
9139;BME280;4604;48.616;9.548;2023-04-26T08:11:24;96997.34;;;9.52;73.08
9139;BME280;4604;48.616;9.548;2023-04-26T08:13:51;96988.97;;;9.77;70.54
9139;BME280;4604;48.616;9.548;2023-04-26T08:16:19;96995.16;;;9.88;69.28
9139;BME280;4604;48.616;9.548;2023-04-26T08:18:46;96995.28;;;9.96;67.91
9139;BME280;4604;48.616;9.548;2023-04-26T08:21:12;97002.97;;;10.08;68.67
9139;BME280;4604;48.616;9.548;2023-04-26T08:23:39;96998.59;;;9.88;69.90
9139;BME280;4604;48.616;9.548;2023-04-26T08:26:06;96992.03;;;9.82;69.06
9139;BME280;4604;48.616;9.548;2023-04-26T08:28:32;96999.59;;;9.97;64.73
9139;BME280;4604;48.616;9.548;2023-04-26T08:31:02;96997.97;;;10.05;66.43
9139;BME280;4604;48.616;9.548;2023-04-26T08:33:30;97003.53;;;10.12;67.03
9139;BME280;4604;48.616;9.548;2023-04-26T08:35:59;96998.50;;;9.99;66.26
9139;BME280;4604;48.616;9.548;2023-04-26T08:38:26;96992.53;;;9.97;64.35
9139;BME280;4604;48.616;9.548;2023-04-26T08:40:54;96995.38;;;10.25;63.98
9139;BME280;4604;48.616;9.548;2023-04-26T08:43:22;96998.03;;;10.25;65.11
9139;BME280;4604;48.616;9.548;2023-04-26T08:45:49;96997.78;;;10.38;63.89
9139;BME280;4604;48.616;9.548;2023-04-26T08:48:16;96990.72;;;10.38;59.91
9139;BME280;4604;48.616;9.548;2023-04-26T08:50:48;96998.53;;;10.09;63.53
9139;BME280;4604;48.616;9.548;2023-04-26T08:53:16;97000.47;;;10.17;61.48
9139;BME280;4604;48.616;9.548;2023-04-26T08:55:46;97007.41;;;10.39;59.34
9139;BME280;4604;48.616;9.548;2023-04-26T08:58:13;97003.28;;;10.25;55.54
9139;BME280;4604;48.616;9.548;2023-04-26T09:00:42;96992.81;;;10.54;59.58
9139;BME280;4604;48.616;9.548;2023-04-26T09:03:09;96997.53;;;10.70;56.44
9139;BME280;4604;48.616;9.548;2023-04-26T09:05:38;97000.88;;;11.21;58.22
9139;BME280;4604;48.616;9.548;2023-04-26T09:08:13;97004.22;;;11.13;56.11
9139;BME280;4604;48.616;9.548;2023-04-26T09:10:41;97001.72;;;10.92;58.90
9139;BME280;4604;48.616;9.548;2023-04-26T09:13:07;96990.88;;;11.05;59.46
9139;BME280;4604;48.616;9.548;2023-04-26T09:15:34;96998.09;;;11.22;54.47
9139;BME280;4604;48.616;9.548;2023-04-26T09:18:18;97000.31;;;11.17;55.71
9139;BME280;4604;48.616;9.548;2023-04-26T09:20:45;96985.75;;;11.03;54.48
9139;BME280;4604;48.616;9.548;2023-04-26T09:23:27;96986.28;;;11.07;54.32
9139;BME280;4604;48.616;9.548;2023-04-26T09:25:54;96991.44;;;10.99;56.28
9139;BME280;4604;48.616;9.548;2023-04-26T09:28:22;96998.19;;;11.40;54.50
9139;BME280;4604;48.616;9.548;2023-04-26T09:30:51;96989.53;;;11.48;51.32
9139;BME280;4604;48.616;9.548;2023-04-26T09:33:17;96984.91;;;10.93;51.44
9139;BME280;4604;48.616;9.548;2023-04-26T09:35:44;96986.22;;;11.36;53.13
9139;BME280;4604;48.616;9.548;2023-04-26T09:38:12;96991.84;;;11.70;51.41
9139;BME280;4604;48.616;9.548;2023-04-26T09:40:41;96985.16;;;11.76;50.77
9139;BME280;4604;48.616;9.548;2023-04-26T09:43:09;96975.41;;;11.76;51.11
9139;BME280;4604;48.616;9.548;2023-04-26T09:45:55;96982.78;;;11.83;51.79
9139;BME280;4604;48.616;9.548;2023-04-26T09:48:23;96977.41;;;11.55;51.13
9139;BME280;4604;48.616;9.548;2023-04-26T09:50:52;96982.84;;;11.63;52.26
9139;BME280;4604;48.616;9.548;2023-04-26T09:53:27;96976.16;;;11.59;50.57
9139;BME280;4604;48.616;9.548;2023-04-26T09:55:56;96977.53;;;11.73;52.86
9139;BME280;4604;48.616;9.548;2023-04-26T09:58:23;96977.03;;;11.87;49.27
9139;BME280;4604;48.616;9.548;2023-04-26T10:00:52;96975.25;;;11.88;48.68
9139;BME280;4604;48.616;9.548;2023-04-26T10:03:21;96972.53;;;12.07;50.08
9139;BME280;4604;48.616;9.548;2023-04-26T10:05:48;96972.72;;;11.96;46.71
9139;BME280;4604;48.616;9.548;2023-04-26T10:08:15;96971.59;;;11.98;49.52
9139;BME280;4604;48.616;9.548;2023-04-26T10:10:42;96970.03;;;12.24;50.48
9139;BME280;4604;48.616;9.548;2023-04-26T10:13:11;96965.38;;;12.35;47.14
9139;BME280;4604;48.616;9.548;2023-04-26T10:15:39;96968.09;;;12.43;48.33
9139;BME280;4604;48.616;9.548;2023-04-26T10:18:07;96970.53;;;12.55;48.52
9139;BME280;4604;48.616;9.548;2023-04-26T10:20:34;96976.69;;;12.73;46.18
9139;BME280;4604;48.616;9.548;2023-04-26T10:23:04;96964.03;;;13.03;46.51
9139;BME280;4604;48.616;9.548;2023-04-26T10:25:36;96961.59;;;13.10;45.86
9139;BME280;4604;48.616;9.548;2023-04-26T10:28:03;96961.28;;;12.95;45.82
9139;BME280;4604;48.616;9.548;2023-04-26T10:30:31;96953.91;;;12.80;46.12
9139;BME280;4604;48.616;9.548;2023-04-26T10:33:15;96952.78;;;13.09;48.49
9139;BME280;4604;48.616;9.548;2023-04-26T10:36:05;96947.69;;;13.34;47.87
9139;BME280;4604;48.616;9.548;2023-04-26T10:38:33;96956.59;;;13.06;45.19
9139;BME280;4604;48.616;9.548;2023-04-26T10:41:29;96946.56;;;13.18;47.35
9139;BME280;4604;48.616;9.548;2023-04-26T10:43:57;96938.81;;;13.43;48.69
9139;BME280;4604;48.616;9.548;2023-04-26T10:46:34;96946.56;;;13.18;46.86
9139;BME280;4604;48.616;9.548;2023-04-26T10:49:12;96946.50;;;13.28;44.70
9139;BME280;4604;48.616;9.548;2023-04-26T10:51:39;96941.28;;;12.56;44.24
9139;BME280;4604;48.616;9.548;2023-04-26T10:54:08;96942.75;;;12.95;44.83
9139;BME280;4604;48.616;9.548;2023-04-26T10:56:49;96949.22;;;13.18;46.02
9139;BME280;4604;48.616;9.548;2023-04-26T10:59:19;96956.31;;;13.10;42.45
9139;BME280;4604;48.616;9.548;2023-04-26T11:01:47;96942.09;;;12.93;44.05
9139;BME280;4604;48.616;9.548;2023-04-26T11:04:15;96946.88;;;12.71;43.07
9139;BME280;4604;48.616;9.548;2023-04-26T11:06:49;96952.75;;;12.29;43.71
9139;BME280;4604;48.616;9.548;2023-04-26T11:09:32;96951.44;;;12.15;44.30
9139;BME280;4604;48.616;9.548;2023-04-26T11:12:00;96946.66;;;12.19;43.20
9139;BME280;4604;48.616;9.548;2023-04-26T11:14:27;96951.25;;;12.27;44.96
9139;BME280;4604;48.616;9.548;2023-04-26T11:16:56;96944.13;;;12.45;44.21
9139;BME280;4604;48.616;9.548;2023-04-26T11:19:22;96940.53;;;12.46;44.16
9139;BME280;4604;48.616;9.548;2023-04-26T11:21:49;96935.81;;;12.58;44.97
9139;BME280;4604;48.616;9.548;2023-04-26T11:24:16;96936.75;;;12.49;43.35
9139;BME280;4604;48.616;9.548;2023-04-26T11:26:50;96936.41;;;12.70;43.72
9139;BME280;4604;48.616;9.548;2023-04-26T11:29:17;96934.50;;;12.98;41.81
9139;BME280;4604;48.616;9.548;2023-04-26T11:31:50;96916.38;;;13.29;42.32
9139;BME280;4604;48.616;9.548;2023-04-26T11:36:56;96910.22;;;13.55;43.11
9139;BME280;4604;48.616;9.548;2023-04-26T11:39:22;96912.53;;;13.58;42.47
9139;BME280;4604;48.616;9.548;2023-04-26T11:41:49;96912.72;;;13.56;41.81
9139;BME280;4604;48.616;9.548;2023-04-26T11:44:19;96914.22;;;13.33;42.30
9139;BME280;4604;48.616;9.548;2023-04-26T11:46:47;96906.06;;;13.52;41.71
9139;BME280;4604;48.616;9.548;2023-04-26T11:49:14;96905.34;;;13.24;40.98
9139;BME280;4604;48.616;9.548;2023-04-26T11:51:45;96899.66;;;13.11;41.60
9139;BME280;4604;48.616;9.548;2023-04-26T11:54:25;96908.69;;;13.26;41.13
9139;BME280;4604;48.616;9.548;2023-04-26T11:56:52;96889.06;;;13.71;41.87
9139;BME280;4604;48.616;9.548;2023-04-26T11:59:22;96886.66;;;13.86;43.63
9139;BME280;4604;48.616;9.548;2023-04-26T12:01:50;96879.56;;;14.03;43.31
9139;BME280;4604;48.616;9.548;2023-04-26T12:04:17;96877.63;;;14.29;43.11
9139;BME280;4604;48.616;9.548;2023-04-26T12:06:45;96878.16;;;14.49;43.21
9139;BME280;4604;48.616;9.548;2023-04-26T12:09:13;96873.19;;;14.46;40.64
9139;BME280;4604;48.616;9.548;2023-04-26T12:11:47;96874.78;;;14.15;40.80
9139;BME280;4604;48.616;9.548;2023-04-26T12:14:14;96880.06;;;14.06;41.11
9139;BME280;4604;48.616;9.548;2023-04-26T12:16:41;96869.00;;;13.68;41.35
9139;BME280;4604;48.616;9.548;2023-04-26T12:19:08;96877.66;;;13.79;41.74
9139;BME280;4604;48.616;9.548;2023-04-26T12:21:42;96869.34;;;13.74;41.90
9139;BME280;4604;48.616;9.548;2023-04-26T12:24:22;96865.69;;;13.66;43.20
9139;BME280;4604;48.616;9.548;2023-04-26T12:26:49;96871.41;;;13.96;40.52
9139;BME280;4604;48.616;9.548;2023-04-26T12:29:16;96867.03;;;13.70;41.04
9139;BME280;4604;48.616;9.548;2023-04-26T12:31:43;96864.47;;;13.95;42.39
9139;BME280;4604;48.616;9.548;2023-04-26T12:34:10;96861.03;;;14.19;42.20
9139;BME280;4604;48.616;9.548;2023-04-26T12:36:39;96867.19;;;14.44;42.86
9139;BME280;4604;48.616;9.548;2023-04-26T12:39:08;96866.72;;;14.57;42.32
9139;BME280;4604;48.616;9.548;2023-04-26T12:41:36;96871.69;;;14.44;40.30
9139;BME280;4604;48.616;9.548;2023-04-26T12:44:03;96863.66;;;14.11;40.13
9139;BME280;4604;48.616;9.548;2023-04-26T12:46:29;96867.81;;;14.13;42.13
9139;BME280;4604;48.616;9.548;2023-04-26T12:48:56;96862.16;;;14.00;41.62
9139;BME280;4604;48.616;9.548;2023-04-26T12:51:23;96864.69;;;14.43;41.81
9139;BME280;4604;48.616;9.548;2023-04-26T12:53:49;96867.72;;;14.56;42.09
9139;BME280;4604;48.616;9.548;2023-04-26T12:56:16;96859.56;;;14.41;41.45
9139;BME280;4604;48.616;9.548;2023-04-26T12:58:44;96849.09;;;14.40;43.00
9139;BME280;4604;48.616;9.548;2023-04-26T13:01:12;96841.63;;;14.84;43.47
9139;BME280;4604;48.616;9.548;2023-04-26T13:03:38;96853.22;;;14.99;44.02
9139;BME280;4604;48.616;9.548;2023-04-26T13:06:05;96848.25;;;15.13;43.48
9139;BME280;4604;48.616;9.548;2023-04-26T13:08:35;96846.34;;;15.38;42.03
9139;BME280;4604;48.616;9.548;2023-04-26T13:11:02;96846.91;;;15.73;41.54
9139;BME280;4604;48.616;9.548;2023-04-26T13:13:29;96853.06;;;15.73;40.37
9139;BME280;4604;48.616;9.548;2023-04-26T13:15:57;96843.69;;;15.86;40.78
9139;BME280;4604;48.616;9.548;2023-04-26T13:18:23;96842.09;;;15.99;41.26
9139;BME280;4604;48.616;9.548;2023-04-26T13:20:50;96846.34;;;16.17;40.42
9139;BME280;4604;48.616;9.548;2023-04-26T13:23:17;96835.25;;;16.28;41.40
9139;BME280;4604;48.616;9.548;2023-04-26T13:25:43;96845.38;;;16.33;40.37
9139;BME280;4604;48.616;9.548;2023-04-26T13:28:10;96841.34;;;15.82;38.29